createdAt,value
2018-10-02T00:02:03.403Z,100.00
2018-10-02T00:05:07.828Z,100.00
2018-10-02T00:08:12.129Z,100.00
2018-10-02T00:12:23.723Z,100.00
2018-10-02T00:15:28.011Z,100.00
2018-10-02T00:18:32.491Z,100.00
2018-10-02T00:21:36.775Z,100.00
2018-10-02T00:24:41.096Z,100.00
2018-10-02T00:27:45.392Z,100.00
2018-10-02T00:30:49.622Z,100.00
2018-10-02T00:33:53.897Z,100.00
2018-10-02T00:36:58.180Z,100.00
2018-10-02T00:40:02.537Z,100.00
2018-10-02T00:43:06.945Z,100.00
2018-10-02T00:46:11.231Z,100.00
2018-10-02T00:49:15.548Z,100.00
2018-10-02T00:52:19.824Z,100.00
2018-10-02T00:55:25.017Z,100.00
2018-10-02T00:58:29.329Z,100.00
2018-10-02T01:01:33.650Z,100.00
2018-10-02T01:04:37.972Z,100.00
2018-10-02T01:07:42.323Z,100.00
2018-10-02T01:10:46.571Z,100.00
2018-10-02T01:13:50.839Z,100.00
2018-10-02T01:16:55.185Z,100.00
2018-10-02T01:19:59.457Z,100.00
2018-10-02T01:23:03.861Z,100.00
2018-10-02T01:26:08.148Z,100.00
2018-10-02T01:29:12.446Z,100.00
2018-10-02T01:32:16.714Z,100.00
2018-10-02T01:35:20.968Z,100.00
2018-10-02T01:38:25.312Z,100.00
2018-10-02T01:41:29.652Z,100.00
2018-10-02T01:44:33.914Z,100.00
2018-10-02T01:47:38.171Z,100.00
2018-10-02T01:50:42.461Z,100.00
2018-10-02T01:53:46.849Z,100.00
2018-10-02T01:56:51.291Z,100.00
2018-10-02T01:59:55.583Z,100.00
2018-10-02T02:02:59.851Z,100.00
2018-10-02T02:06:04.231Z,100.00
2018-10-02T02:09:08.807Z,100.00
2018-10-02T02:12:13.137Z,100.00
2018-10-02T02:15:17.474Z,100.00
2018-10-02T02:18:21.799Z,100.00
2018-10-02T02:21:26.161Z,100.00
2018-10-02T02:24:30.444Z,100.00
2018-10-02T02:27:34.806Z,100.00
2018-10-02T02:30:39.109Z,100.00
2018-10-02T02:33:43.415Z,100.00
2018-10-02T02:36:47.733Z,100.00
2018-10-02T02:39:52.064Z,100.00
2018-10-02T02:42:56.399Z,100.00
2018-10-02T02:46:00.693Z,100.00
2018-10-02T02:49:10.277Z,100.00
2018-10-02T02:52:15.546Z,100.00
2018-10-02T02:55:19.923Z,100.00
2018-10-02T02:58:24.197Z,100.00
2018-10-02T03:01:29.234Z,100.00
2018-10-02T03:04:33.588Z,100.00
2018-10-02T03:07:37.898Z,100.00
2018-10-02T03:10:42.229Z,99.75
2018-10-02T03:13:46.551Z,99.83
2018-10-02T03:16:50.868Z,99.25
2018-10-02T03:19:55.232Z,99.80
2018-10-02T03:22:59.521Z,99.56
2018-10-02T03:26:03.843Z,99.24
2018-10-02T03:29:08.469Z,100.00
2018-10-02T03:32:12.798Z,100.00
2018-10-02T03:35:17.121Z,100.00
2018-10-02T03:38:21.418Z,100.00
2018-10-02T03:41:25.754Z,100.00
2018-10-02T03:44:30.036Z,100.00
2018-10-02T03:47:34.405Z,100.00
2018-10-02T03:50:38.706Z,100.00
2018-10-02T03:53:44.065Z,100.00
2018-10-02T03:56:48.491Z,100.00
2018-10-02T03:59:52.821Z,100.00
2018-10-02T04:02:57.088Z,100.00
2018-10-02T04:06:01.458Z,100.00
2018-10-02T04:09:09.165Z,100.00
2018-10-02T04:12:13.416Z,100.00
2018-10-02T04:15:17.665Z,100.00
2018-10-02T04:18:22.124Z,100.00
2018-10-02T04:21:31.571Z,100.00
2018-10-02T04:24:35.846Z,100.00
2018-10-02T04:27:40.336Z,100.00
2018-10-02T04:30:44.628Z,100.00
2018-10-02T04:33:49.227Z,100.00
2018-10-02T04:36:53.484Z,100.00
2018-10-02T04:39:57.715Z,100.00
2018-10-02T04:43:02.127Z,100.00
2018-10-02T04:46:06.473Z,100.00
2018-10-02T04:49:10.778Z,100.00
2018-10-02T04:52:15.088Z,100.00
2018-10-02T04:55:19.412Z,100.00
2018-10-02T04:58:23.741Z,100.00
2018-10-02T05:01:28.056Z,100.00
2018-10-02T05:04:32.388Z,100.00
2018-10-02T05:07:36.695Z,100.00
2018-10-02T05:10:40.964Z,100.00
2018-10-02T05:13:45.243Z,100.00
2018-10-02T05:16:49.565Z,100.00
2018-10-02T05:19:53.899Z,100.00
2018-10-02T05:22:58.174Z,100.00
2018-10-02T05:26:02.518Z,100.00
2018-10-02T05:29:06.970Z,100.00
2018-10-02T05:32:11.264Z,100.00
2018-10-02T05:35:15.737Z,100.00
2018-10-02T05:38:19.904Z,100.00
2018-10-02T05:41:24.180Z,100.00
2018-10-02T05:44:28.428Z,100.00
2018-10-02T05:47:32.797Z,100.00
2018-10-02T05:50:37.136Z,100.00
2018-10-02T05:53:41.445Z,100.00
2018-10-02T05:56:45.768Z,100.00
2018-10-02T05:59:50.039Z,100.00
2018-10-02T06:02:54.409Z,100.00
2018-10-02T06:05:58.747Z,100.00
2018-10-02T06:09:03.080Z,100.00
2018-10-02T06:12:07.500Z,100.00
2018-10-02T06:15:11.760Z,100.00
2018-10-02T06:18:16.101Z,100.00
2018-10-02T06:21:20.425Z,100.00
2018-10-02T06:24:24.732Z,100.00
2018-10-02T06:27:29.065Z,100.00
2018-10-02T06:30:33.444Z,100.00
2018-10-02T06:33:37.916Z,100.00
2018-10-02T06:36:42.464Z,100.00
2018-10-02T06:39:46.774Z,100.00
2018-10-02T06:42:51.055Z,100.00
2018-10-02T06:45:55.401Z,100.00
2018-10-02T06:48:59.723Z,100.00
2018-10-02T06:52:04.276Z,100.00
2018-10-02T06:55:09.260Z,100.00
2018-10-02T06:58:13.632Z,100.00
2018-10-02T07:01:17.906Z,100.00
2018-10-02T07:04:22.250Z,100.00
2018-10-02T07:07:26.513Z,100.00
2018-10-02T07:10:30.792Z,100.00
2018-10-02T07:13:35.130Z,100.00
2018-10-02T07:16:40.324Z,100.00
2018-10-02T07:19:44.635Z,100.00
2018-10-02T07:22:48.997Z,100.00
2018-10-02T07:25:53.306Z,100.00
2018-10-02T07:28:57.652Z,100.00
2018-10-02T07:32:01.949Z,100.00
2018-10-02T07:35:06.857Z,100.00
2018-10-02T07:38:11.218Z,100.00
2018-10-02T07:41:15.540Z,100.00
2018-10-02T07:44:19.899Z,100.00
2018-10-02T07:47:24.205Z,100.00
2018-10-02T07:50:28.469Z,100.00
2018-10-02T07:53:32.875Z,100.00
2018-10-02T07:56:37.209Z,100.00
2018-10-02T07:59:41.642Z,100.00
2018-10-02T08:02:45.941Z,100.00
2018-10-02T08:05:50.405Z,100.00
2018-10-02T08:08:54.780Z,100.00
2018-10-02T08:11:59.127Z,100.00
2018-10-02T08:15:03.516Z,100.00
2018-10-02T08:18:08.155Z,100.00
2018-10-02T08:21:12.455Z,100.00
2018-10-02T08:24:16.765Z,100.00
2018-10-02T08:27:21.161Z,100.00
2018-10-02T08:30:25.566Z,100.00
2018-10-02T08:33:29.874Z,100.00
2018-10-02T08:36:34.214Z,100.00
2018-10-02T08:39:38.574Z,100.00
2018-10-02T08:42:42.847Z,100.00
2018-10-02T08:45:47.162Z,100.00
2018-10-02T08:48:51.474Z,100.00
2018-10-02T08:51:55.830Z,100.00
2018-10-02T08:55:02.272Z,100.00
2018-10-02T08:58:06.601Z,100.00
2018-10-02T09:01:10.934Z,100.00
2018-10-02T09:04:15.227Z,100.00
2018-10-02T09:07:19.533Z,100.00
2018-10-02T09:10:23.869Z,100.00
2018-10-02T09:13:28.890Z,100.00
2018-10-02T09:16:33.293Z,100.00
2018-10-02T09:19:37.592Z,100.00
2018-10-02T09:22:41.946Z,100.00
2018-10-02T09:25:46.275Z,100.00
2018-10-02T09:28:50.629Z,100.00
2018-10-02T09:32:00.249Z,100.00
2018-10-02T09:35:09.817Z,100.00
2018-10-02T09:38:19.473Z,100.00
2018-10-02T09:41:29.232Z,100.00
2018-10-02T09:44:33.594Z,100.00
2018-10-02T09:47:37.918Z,100.00
2018-10-02T09:50:42.204Z,100.00
2018-10-02T09:53:46.601Z,100.00
2018-10-02T09:56:50.878Z,100.00
2018-10-02T09:59:55.180Z,100.00
2018-10-02T10:02:59.580Z,100.00
2018-10-02T10:06:03.879Z,100.00
2018-10-02T10:09:09.250Z,100.00
2018-10-02T10:12:13.543Z,100.00
2018-10-02T10:15:17.802Z,100.00
2018-10-02T10:18:22.192Z,100.00
2018-10-02T10:21:27.144Z,100.00
2018-10-02T10:24:31.434Z,100.00
2018-10-02T10:27:35.914Z,100.00
2018-10-02T10:30:41.151Z,100.00
2018-10-02T10:33:45.422Z,100.00
2018-10-02T10:36:49.790Z,100.00
2018-10-02T10:39:54.221Z,100.00
2018-10-02T10:42:58.578Z,100.00
2018-10-02T10:46:02.869Z,100.00
2018-10-02T10:49:07.213Z,100.00
2018-10-02T10:52:11.504Z,100.00
2018-10-02T10:55:27.810Z,100.00
2018-10-02T10:58:32.212Z,100.00
2018-10-02T11:01:36.481Z,100.00
2018-10-02T11:04:40.863Z,100.00
2018-10-02T11:07:45.272Z,100.00
2018-10-02T11:10:49.734Z,100.00
2018-10-02T11:13:54.147Z,100.00
2018-10-02T11:16:58.423Z,100.00
2018-10-02T11:20:03.510Z,100.00
2018-10-02T11:23:07.798Z,100.00
2018-10-02T11:26:12.661Z,100.00
2018-10-02T11:29:17.034Z,100.00
2018-10-02T11:32:21.473Z,100.00
2018-10-02T11:35:26.163Z,100.00
2018-10-02T11:38:30.535Z,100.00
2018-10-02T11:41:34.829Z,100.00
2018-10-02T11:44:39.225Z,100.00
2018-10-02T11:47:43.506Z,100.00
2018-10-02T11:50:47.936Z,100.00
2018-10-02T11:53:52.212Z,100.00
2018-10-02T11:56:56.529Z,100.00
2018-10-02T12:00:00.862Z,100.00
2018-10-02T12:03:05.200Z,100.00
2018-10-02T12:06:10.261Z,100.00
2018-10-02T12:09:14.646Z,99.56
2018-10-02T12:12:18.978Z,100.00
2018-10-02T12:15:23.416Z,100.00
2018-10-02T12:18:27.706Z,100.00
2018-10-02T12:21:32.003Z,100.00
2018-10-02T12:24:36.354Z,100.00
2018-10-02T12:27:40.703Z,96.68
2018-10-02T12:30:45.037Z,94.14
2018-10-02T12:33:49.352Z,95.04
2018-10-02T12:36:53.633Z,95.35
2018-10-02T12:39:57.956Z,94.52
2018-10-02T12:43:02.289Z,94.93
2018-10-02T12:46:07.318Z,95.44
2018-10-02T12:49:11.647Z,90.76
2018-10-02T12:52:16.373Z,91.55
2018-10-02T12:55:20.711Z,84.82
2018-10-02T12:58:24.976Z,81.37
2018-10-02T13:01:29.347Z,78.86
2018-10-02T13:04:33.699Z,76.71
2018-10-02T13:07:38.007Z,75.32
2018-10-02T13:10:42.290Z,76.06
2018-10-02T13:13:46.633Z,77.06
2018-10-02T13:16:50.970Z,75.03
2018-10-02T13:19:55.950Z,76.17
2018-10-02T13:23:00.302Z,76.75
2018-10-02T13:26:05.393Z,77.49
2018-10-02T13:29:09.802Z,76.92
2018-10-02T13:32:14.181Z,78.45
2018-10-02T13:35:18.394Z,77.69
2018-10-02T13:38:22.693Z,78.52
2018-10-02T13:41:26.995Z,80.81
2018-10-02T13:44:31.332Z,80.75
2018-10-02T13:47:35.701Z,80.92
2018-10-02T13:50:40.118Z,78.59
2018-10-02T13:53:44.689Z,78.86
2018-10-02T13:56:49.060Z,78.74
2018-10-02T13:59:53.391Z,79.65
2018-10-02T14:02:57.740Z,80.68
2018-10-02T14:06:02.067Z,80.80
2018-10-02T14:09:08.020Z,79.55
2018-10-02T14:12:12.318Z,78.73
2018-10-02T14:15:16.659Z,80.02
2018-10-02T14:18:20.948Z,80.48
2018-10-02T14:21:25.306Z,79.93
2018-10-02T14:24:29.578Z,77.60
2018-10-02T14:27:33.944Z,77.61
2018-10-02T14:30:38.302Z,76.97
2018-10-02T14:33:42.694Z,76.54
2018-10-02T14:36:47.015Z,74.80
2018-10-02T14:39:51.313Z,73.66
2018-10-02T14:42:55.685Z,74.00
2018-10-02T14:46:00.068Z,74.50
2018-10-02T14:49:04.369Z,75.66
2018-10-02T14:52:08.700Z,76.45
2018-10-02T14:55:12.987Z,76.90
2018-10-02T14:58:17.415Z,77.41
2018-10-02T15:01:21.794Z,80.54
2018-10-02T15:04:26.082Z,78.18
2018-10-02T15:07:30.677Z,80.05
2018-10-02T15:10:35.311Z,82.54
2018-10-02T15:13:39.664Z,86.56
2018-10-02T15:16:44.035Z,88.56
2018-10-02T15:19:48.383Z,89.80
2018-10-02T15:22:52.766Z,88.85
2018-10-02T15:25:57.217Z,87.89
2018-10-02T15:29:01.637Z,85.55
2018-10-02T15:32:06.033Z,82.10
2018-10-02T15:35:10.968Z,80.53
2018-10-02T15:38:15.286Z,80.00
2018-10-02T15:41:19.708Z,80.54
2018-10-02T15:44:24.070Z,79.90
2018-10-02T15:47:30.454Z,81.21
2018-10-02T15:50:34.743Z,83.34
2018-10-02T15:53:39.128Z,86.41
2018-10-02T15:56:43.461Z,90.85
2018-10-02T15:59:48.538Z,95.32
2018-10-02T16:02:52.836Z,96.77
2018-10-02T16:05:57.124Z,98.42
2018-10-02T16:09:01.457Z,100.00
2018-10-02T16:12:06.733Z,96.97
2018-10-02T16:15:11.121Z,95.79
2018-10-02T16:18:15.472Z,96.37
2018-10-02T16:21:19.789Z,96.58
2018-10-02T16:24:24.102Z,96.01
2018-10-02T16:27:28.530Z,95.52
2018-10-02T16:30:32.921Z,94.22
2018-10-02T16:33:37.260Z,93.07
2018-10-02T16:36:41.609Z,94.22
2018-10-02T16:39:46.672Z,95.29
2018-10-02T16:42:51.032Z,96.15
2018-10-02T16:45:55.354Z,96.69
2018-10-02T16:48:59.690Z,97.13
2018-10-02T16:52:04.268Z,95.69
2018-10-02T16:55:08.663Z,97.19
2018-10-02T16:58:13.067Z,100.00
2018-10-02T17:01:17.495Z,100.00
2018-10-02T17:04:21.926Z,100.00
2018-10-02T17:07:26.350Z,100.00
2018-10-02T17:10:30.776Z,100.00
2018-10-02T17:13:36.385Z,100.00
2018-10-02T17:16:41.471Z,100.00
2018-10-02T17:19:46.734Z,100.00
2018-10-02T17:22:52.264Z,100.00
2018-10-02T17:25:57.384Z,100.00
2018-10-02T17:29:02.597Z,100.00
2018-10-02T17:32:08.231Z,100.00
2018-10-02T17:35:12.758Z,100.00
2018-10-02T17:38:17.144Z,100.00
2018-10-02T17:41:21.413Z,100.00
2018-10-02T17:44:25.796Z,100.00
2018-10-02T17:47:30.109Z,100.00
2018-10-02T17:50:34.418Z,100.00
2018-10-02T17:53:38.745Z,100.00
2018-10-02T17:56:43.073Z,100.00
2018-10-02T17:59:47.409Z,100.00
2018-10-02T18:02:51.725Z,100.00
2018-10-02T18:05:56.133Z,100.00
2018-10-02T18:09:00.534Z,100.00
2018-10-02T18:12:04.903Z,100.00
2018-10-02T18:15:09.275Z,100.00
2018-10-02T18:18:13.590Z,100.00
2018-10-02T18:21:18.043Z,100.00
2018-10-02T18:24:22.386Z,100.00
2018-10-02T18:27:26.808Z,99.82
2018-10-02T18:30:31.709Z,100.00
2018-10-02T18:33:36.159Z,100.00
2018-10-02T18:36:40.585Z,99.17
2018-10-02T18:39:45.157Z,97.48
2018-10-02T18:42:49.595Z,96.73
2018-10-02T18:45:53.953Z,99.62
2018-10-02T18:48:58.426Z,100.00
2018-10-02T18:52:02.895Z,100.00
2018-10-02T18:55:07.709Z,100.00
2018-10-02T18:58:12.305Z,100.00
2018-10-02T19:01:17.829Z,99.80
2018-10-02T19:04:22.250Z,100.00
2018-10-02T19:07:26.894Z,99.29
2018-10-02T19:10:31.612Z,99.41
2018-10-02T19:13:36.614Z,100.00
2018-10-02T19:16:41.395Z,100.00
2018-10-02T19:19:51.225Z,100.00
2018-10-02T19:22:55.924Z,100.00
2018-10-02T19:26:10.838Z,100.00
2018-10-02T19:29:15.648Z,100.00
2018-10-02T19:32:20.569Z,100.00
2018-10-02T19:35:25.494Z,99.77
2018-10-02T19:38:35.241Z,100.00
2018-10-02T19:41:40.062Z,98.51
2018-10-02T19:44:45.044Z,99.19
2018-10-02T19:47:49.731Z,98.11
2018-10-02T19:50:57.976Z,95.80
2018-10-02T19:54:03.414Z,93.99
2018-10-02T19:57:09.746Z,92.33
2018-10-02T20:00:14.528Z,91.74
2018-10-02T20:03:19.347Z,89.85
2018-10-02T20:06:23.972Z,89.40
2018-10-02T20:09:28.694Z,93.72
2018-10-02T20:12:33.370Z,96.38
2018-10-02T20:15:38.094Z,98.81
2018-10-02T20:18:42.820Z,99.88
2018-10-02T20:21:47.524Z,99.82
2018-10-02T20:24:52.353Z,100.00
2018-10-02T20:27:57.009Z,100.00
2018-10-02T20:31:01.746Z,100.00
2018-10-02T20:34:06.481Z,100.00
2018-10-02T20:37:11.025Z,96.44
2018-10-02T20:40:15.664Z,96.54
2018-10-02T20:43:20.518Z,96.33
2018-10-02T20:46:25.339Z,95.03
2018-10-02T20:49:30.074Z,95.21
2018-10-02T20:52:34.644Z,96.29
2018-10-02T20:55:39.268Z,95.71
2018-10-02T20:58:43.752Z,95.72
2018-10-02T21:01:48.114Z,92.34
2018-10-02T21:04:52.849Z,93.02
2018-10-02T21:07:57.619Z,92.42
2018-10-02T21:11:02.042Z,92.58
2018-10-02T21:14:06.454Z,95.06
2018-10-02T21:17:10.742Z,96.41
2018-10-02T21:20:15.102Z,97.39
2018-10-02T21:23:19.552Z,99.31
2018-10-02T21:26:23.928Z,100.00
2018-10-02T21:29:28.230Z,98.96
2018-10-02T21:32:32.605Z,97.14
2018-10-02T21:35:36.992Z,98.40
2018-10-02T21:38:42.044Z,99.67
2018-10-02T21:41:46.335Z,99.62
2018-10-02T21:44:50.762Z,99.95
2018-10-02T21:47:55.117Z,100.00
2018-10-02T21:50:59.595Z,100.00
2018-10-02T21:54:03.971Z,99.65
2018-10-02T21:57:08.321Z,99.84
2018-10-02T22:00:12.698Z,100.00
2018-10-02T22:03:17.046Z,100.00
2018-10-02T22:06:21.412Z,100.00
2018-10-02T22:09:25.754Z,99.81
2018-10-02T22:12:30.140Z,97.94
2018-10-02T22:15:34.986Z,97.51
2018-10-02T22:18:39.339Z,96.41
2018-10-02T22:21:43.665Z,97.25
2018-10-02T22:24:48.093Z,95.86
2018-10-02T22:27:52.654Z,95.90
2018-10-02T22:30:58.043Z,97.02
2018-10-02T22:34:02.395Z,96.38
2018-10-02T22:37:06.725Z,96.81
2018-10-02T22:40:12.701Z,95.41
2018-10-02T22:43:17.015Z,95.27
2018-10-02T22:46:21.288Z,97.23
2018-10-02T22:49:25.533Z,97.41
2018-10-02T22:52:29.819Z,97.33
2018-10-02T22:55:34.162Z,96.21
2018-10-02T22:58:38.417Z,95.42
2018-10-02T23:01:42.817Z,95.73
2018-10-02T23:04:47.114Z,95.42
2018-10-02T23:07:51.397Z,92.91
2018-10-02T23:10:55.654Z,92.26
2018-10-02T23:13:59.980Z,91.75
2018-10-02T23:17:05.314Z,91.13
2018-10-02T23:20:10.451Z,89.57
2018-10-02T23:23:16.356Z,91.67
2018-10-02T23:26:21.737Z,97.38
2018-10-02T23:29:26.811Z,100.00
2018-10-02T23:32:31.140Z,100.00
2018-10-02T23:35:35.480Z,100.00
2018-10-02T23:38:39.782Z,100.00
2018-10-02T23:41:44.085Z,100.00
2018-10-02T23:44:48.423Z,100.00
2018-10-02T23:47:52.784Z,100.00
2018-10-02T23:50:57.022Z,100.00
2018-10-02T23:54:01.418Z,100.00
2018-10-02T23:57:06.179Z,100.00
